Latest Weather Observations for Laverton

IDV60901

Issued at 1:01 pm EST Thursday 25 May 2017 (issued every 10 minutes, with the page automatically refreshed every 10 minutes)

About weather observations | Map of Melbourne area stations | Latest observations for Melbourne area | Other Formats
Station Details ID: 087031 Name: LAVERTON RAAF Lat: -37.86 Lon: 144.76 Height: 20.1 m
Data from the previous 72 hours. | See also: Recent months at Laverton
Date/Time
EST
Temp
°C
App
Temp
°C
Dew
Point
°C
Rel
Hum
%
Delta-T
°C
Wind Press
QNH
hPa
Press
MSL
hPa
Rain since
9am
mm
Dir  Spd
km/h
Gust
km/h
Spd
kts
Gust
kts
25/01:00pm 17.1 12.6 8.5 57 4.4 NW 22 32 12 17 1019.0 1019.0 0.0
25/12:30pm 17.3 13.4 8.7 57 4.4 N 19 28 10 15 1019.3 1019.3 0.0
25/12:00pm 16.5 12.4 8.7 60 4.0 NNW 20 28 11 15 1019.8 1019.8 0.0
25/11:30am 15.3 11.3 8.1 62 3.6 N 19 28 10 15 1020.4 1020.4 0.0
25/11:00am 14.6 10.9 8.1 65 3.2 N 17 26 9 14 1020.9 1020.9 0.0
25/10:30am 14.3 10.2 8.0 66 3.1 NNW 19 26 10 14 1020.9 1020.9 0.0
25/10:00am 14.0 11.1 8.0 67 3.0 NNW 13 19 7 10 1021.1 1021.1 0.0
25/09:30am 13.4 9.7 8.0 70 2.7 NW 17 22 9 12 1021.3 1021.3 0.0
25/09:00am 13.1 9.9 8.6 74 2.2 WNW 15 20 8 11 1021.0 1021.0 0.0
25/08:30am 13.1 10.2 8.2 72 2.4 WNW 13 17 7 9 1020.8 1020.8 0.0
25/08:00am 12.6 10.4 9.2 80 1.7 NW 11 15 6 8 1020.5 1020.5 0.0
25/07:30am 12.3 11.1 9.5 83 1.4 NW 6 9 3 5 1020.3 1020.3 0.0
25/07:00am 12.3 10.5 9.5 83 1.4 NW 9 9 5 5 1020.2 1020.2 0.0
25/06:30am 12.6 11.1 9.2 80 1.7 NNW 7 9 4 5 1020.1 1020.1 0.0
25/06:00am 12.7 11.4 9.3 80 1.7 NNW 6 7 3 4 1019.9 1019.9 0.0
25/05:30am 12.8 11.4 9.4 80 1.7 N 7 9 4 5 1019.8 1019.8 0.0
25/05:00am 12.4 11.1 10.0 85 1.2 NNW 7 9 4 5 1019.9 1019.9 0.0
25/04:30am 12.4 11.1 10.0 85 1.2 NNW 7 11 4 6 1019.8 1019.8 0.0
25/04:00am 12.5 11.2 10.0 85 1.3 NNW 7 11 4 6 1019.5 1019.5 0.0
25/03:30am 12.4 10.8 10.1 86 1.2 NW 9 13 5 7 1019.6 1019.6 0.0
25/03:00am 12.2 11.0 10.3 88 1.0 NNW 7 9 4 5 1019.8 1019.8 0.0
25/02:30am 12.3 11.1 10.4 88 1.0 NW 7 11 4 6 1019.7 1019.7 0.0
25/02:00am 12.2 10.6 10.3 88 1.0 NW 9 13 5 7 1019.8 1019.8 0.0
25/01:30am 12.2 10.2 10.3 88 1.0 NW 11 13 6 7 1020.0 1020.0 0.0
25/01:00am 12.2 10.2 10.1 87 1.1 NW 11 13 6 7 1020.1 1020.1 0.0
25/12:30am 12.6 10.5 9.8 83 1.4 NW 11 15 6 8 1020.2 1020.2 0.0
25/12:00am 12.8 10.9 9.1 78 1.9 NNW 9 13 5 7 1020.2 1020.2 0.0
 
Date/Time
EST
Temp
°C
App
Temp
°C
Dew
Point
°C
Rel
Hum
%
Delta-T
°C
Wind Press
QNH
hPa
Press
MSL
hPa
Rain since
9am
mm
Dir  Spd
km/h
Gust
km/h
Spd
kts
Gust
kts
24/11:30pm 12.6 10.6 8.7 77 1.9 NNW 9 13 5 7 1020.2 1020.2 0.0
24/11:00pm 12.4 10.1 8.9 79 1.7 NNW 11 13 6 7 1020.2 1020.2 0.0
24/10:30pm 11.6 9.9 8.5 81 1.5 NNW 7 9 4 5 1020.3 1020.3 0.0
24/10:00pm 11.0 8.8 7.7 80 1.6 NW 9 11 5 6 1020.3 1020.3 0.0
24/09:30pm 11.7 9.9 7.8 77 1.9 NW 7 9 4 5 1020.1 1020.1 0.0
24/09:00pm 12.1 10.3 8.0 76 2.0 NW 7 9 4 5 1019.9 1019.9 0.0
24/08:30pm 12.7 10.6 8.4 75 2.1 NW 9 11 5 6 1019.7 1019.7 0.0
24/08:00pm 13.2 11.1 8.1 71 2.5 WNW 9 11 5 6 1019.6 1019.6 0.0
24/07:30pm 13.6 11.4 7.8 68 2.9 W 9 13 5 7 1019.5 1019.5 0.0
24/07:00pm 12.9 10.3 7.8 71 2.5 WNW 11 17 6 9 1019.3 1019.3 0.0
24/06:30pm 13.0 10.4 7.7 70 2.6 NW 11 11 6 6 1019.0 1019.0 0.0
24/06:00pm 13.9 11.2 7.4 65 3.2 WNW 11 15 6 8 1018.7 1018.7 0.0
24/05:30pm 13.8 11.6 7.8 67 3.0 WNW 9 17 5 9 1018.4 1018.4 0.0
24/05:00pm 14.3 11.6 7.4 63 3.4 W 11 15 6 8 1018.2 1018.2 0.0
24/04:30pm 15.3 11.0 7.1 58 4.0 W 19 24 10 13 1017.8 1017.8 0.0
24/04:00pm 16.0 11.6 7.2 56 4.4 W 20 32 11 17 1017.5 1017.5 0.0
24/03:30pm 15.7 11.3 7.5 58 4.1 W 20 32 11 17 1017.2 1017.2 0.0
24/03:00pm 15.4 10.6 7.4 59 4.0 WSW 22 33 12 18 1016.8 1016.8 0.0
24/02:30pm 15.0 10.5 8.5 65 3.3 WSW 22 32 12 17 1016.7 1016.7 0.0
24/02:00pm 16.0 10.6 8.2 60 3.9 WSW 26 33 14 18 1016.3 1016.3 0.0
24/01:30pm 16.4 11.0 8.1 58 4.2 W 26 37 14 20 1016.0 1016.0 0.0
24/01:00pm 15.8 12.0 9.2 65 3.4 WSW 19 32 10 17 1016.1 1016.1 0.0
24/12:30pm 16.0 10.6 8.0 59 4.0 WSW 26 37 14 20 1016.1 1016.1 0.0
24/12:00pm 16.1 11.9 8.1 59 4.0 W 20 33 11 18 1016.3 1016.3 0.0
24/11:30am 15.8 11.8 9.0 64 3.5 W 20 30 11 16 1016.5 1016.5 0.0
24/11:00am 15.4 10.7 9.1 66 3.2 W 24 35 13 19 1016.5 1016.5 0.0
24/10:30am 15.2 10.3 9.8 70 2.8 W 26 35 14 19 1016.3 1016.3 0.0
24/10:00am 14.7 9.7 9.7 72 2.6 WNW 26 37 14 20 1016.0 1016.0 0.0
24/09:30am 14.1 9.8 9.3 73 2.5 WNW 22 32 12 17 1015.6 1015.6 0.0
24/09:00am 13.1 9.0 8.8 75 2.2 NW 20 24 11 13 1015.3 1015.3 0.0
24/08:30am 11.7 8.9 8.6 81 1.5 NW 13 17 7 9 1015.0 1015.0 0.0
24/08:00am 9.5 6.5 7.8 89 0.8 NW 13 17 7 9 1014.9 1014.9 0.0
24/07:30am 9.5 6.4 7.1 85 1.1 NNW 13 17 7 9 1014.4 1014.4 0.0
24/07:00am 9.5 6.8 7.4 87 1.0 NNW 11 13 6 7 1014.1 1014.1 0.0
24/06:30am 8.3 5.1 6.9 91 0.7 NW 13 15 7 8 1013.8 1013.8 0.0
24/06:00am 9.4 7.5 7.5 88 0.9 NNW 7 9 4 5 1013.4 1013.4 0.0
24/05:30am 9.9 7.2 7.5 85 1.1 NNW 11 15 6 8 1013.1 1013.1 0.0
24/05:00am 11.0 8.5 8.1 82 1.4 NNW 11 15 6 8 1012.7 1012.7 0.0
24/04:30am 11.9 8.3 8.4 79 1.7 NW 17 20 9 11 1012.3 1012.3 0.0
24/04:00am 12.2 9.8 8.5 78 1.8 NNW 11 15 6 8 1012.2 1012.2 0.0
24/03:30am 12.1 9.7 8.6 79 1.7 NNW 11 15 6 8 1012.4 1012.4 0.0
24/03:00am 12.3 8.8 8.6 78 1.8 NW 17 20 9 11 1012.3 1012.3 0.0
24/02:30am 11.5 8.8 8.9 84 1.3 NNW 13 15 7 8 1012.2 1012.2 0.0
24/02:00am 11.7 9.8 9.1 84 1.3 NNW 9 11 5 6 1012.3 1012.3 0.0
24/01:30am 12.9 10.9 10.1 83 1.4 N 11 15 6 8 1012.2 1012.2 0.0
24/01:00am 13.4 11.4 10.2 81 1.7 N 11 17 6 9 1012.3 1012.3 0.0
24/12:30am 13.6 11.7 10.4 81 1.7 NNW 11 17 6 9 1012.6 1012.6 0.0
24/12:00am 13.5 11.7 10.7 83 1.5 N 11 17 6 9 1012.8 1012.8 0.0
 
Date/Time
EST
Temp
°C
App
Temp
°C
Dew
Point
°C
Rel
Hum
%
Delta-T
°C
Wind Press
QNH
hPa
Press
MSL
hPa
Rain since
9am
mm
Dir  Spd
km/h
Gust
km/h
Spd
kts
Gust
kts
23/11:30pm 13.6 11.0 10.8 83 1.5 N 15 19 8 10 1013.1 1013.1 0.0
23/11:00pm 13.5 11.7 10.9 84 1.4 N 11 19 6 10 1013.4 1013.4 0.0
23/10:30pm 13.7 11.9 10.7 82 1.6 N 11 17 6 9 1013.8 1013.8 0.0
23/10:00pm 14.2 12.4 10.8 80 1.8 N 11 15 6 8 1014.1 1014.1 0.0
23/09:30pm 14.6 12.9 11.2 80 1.8 N 11 17 6 9 1014.1 1014.1 0.0
23/09:00pm 13.0 11.5 10.4 84 1.3 N 9 11 5 6 1014.1 1014.1 0.0
23/08:30pm 12.3 10.6 10.0 86 1.2 NW 9 13 5 7 1014.2 1014.2 0.0
23/08:00pm 12.6 11.4 9.6 82 1.5 N 6 7 3 4 1014.1 1014.1 0.0
23/07:30pm 13.1 11.7 9.5 79 1.8 N 7 11 4 6 1014.1 1014.1 0.0
23/07:00pm 14.1 12.4 9.9 76 2.2 NNE 9 13 5 7 1013.9 1013.9 0.0
23/06:30pm 14.8 13.2 10.2 74 2.4 N 9 13 5 7 1014.0 1014.0 0.0
23/06:00pm 15.2 13.2 10.2 72 2.6 N 11 15 6 8 1014.0 1014.0 0.0
23/05:30pm 15.5 13.5 10.3 71 2.7 NNW 11 15 6 8 1014.0 1014.0 0.0
23/05:00pm 16.7 14.7 10.3 66 3.4 NNW 11 17 6 9 1013.8 1013.8 0.0
23/04:30pm 18.1 14.7 10.7 62 4.0 N 19 28 10 15 1013.4 1013.4 0.0
23/04:00pm 19.0 14.7 10.8 59 4.4 NNW 24 33 13 18 1013.4 1013.4 0.0
23/03:30pm 19.5 15.8 10.2 55 5.0 NNW 20 33 11 18 1013.3 1013.3 0.0
23/03:00pm 19.8 15.8 10.5 55 5.0 NNW 22 33 12 18 1013.2 1013.2 0.0
23/02:30pm 19.5 16.3 11.3 59 4.5 NNE 19 30 10 16 1013.5 1013.5 0.0
23/02:00pm 18.3 15.8 10.9 62 4.0 NE 15 24 8 13 1013.7 1013.7 0.0
23/01:30pm 18.3 14.4 10.9 62 4.0 NNE 22 32 12 17 1013.8 1013.8 0.0
23/01:00pm 18.3 14.9 11.1 63 3.9 NNE 20 32 11 17 1014.4 1014.4 0.0
23/12:30pm 18.1 14.8 11.0 63 3.8 NNE 19 24 10 13 1015.0 1015.0 0.0
23/12:00pm 16.8 13.1 10.2 65 3.5 N 20 30 11 16 1015.3 1015.3 0.0
23/11:30am 17.3 12.6 10.7 65 3.5 NNE 26 39 14 21 1015.7 1015.7 0.0
23/11:00am 15.8 11.7 10.1 69 3.0 NNE 22 32 12 17 1016.6 1016.6 0.0
23/10:30am 15.8 11.6 9.7 67 3.2 N 22 37 12 20 1016.7 1016.7 0.0
23/10:00am 15.9 11.3 9.8 67 3.2 NNE 24 35 13 19 1016.6 1016.6 0.0
23/09:30am 15.1 11.3 9.9 71 2.7 N 20 32 11 17 1016.9 1016.9 0.0
23/09:00am 14.8 10.6 9.6 71 2.7 N 22 35 12 19 1017.1 1017.1 0.0
23/08:30am 15.0 11.0 9.1 68 3.0 N 20 32 11 17 1017.6 1017.6 0.0
23/08:00am 15.3 10.9 9.0 66 3.2 N 22 35 12 19 1017.3 1017.3 0.0
23/07:30am 15.3 10.5 8.8 65 3.3 N 24 37 13 20 1017.6 1017.6 0.0
23/07:00am 15.0 11.5 8.7 66 3.2 N 17 28 9 15 1017.4 1017.4 0.0
23/06:30am 14.9 11.4 8.8 67 3.1 NNW 17 24 9 13 1018.0 1018.0 0.0
23/06:00am 14.9 10.8 8.8 67 3.1 NNW 20 28 11 15 1018.0 1018.0 0.0
23/05:30am 15.8 10.6 8.8 63 3.6 NNW 26 35 14 19 1017.8 1017.8 0.0
23/05:00am 16.0 11.1 8.5 61 3.8 N 24 41 13 22 1016.9 1016.9 0.0
23/04:30am 16.0 10.7 8.5 61 3.8 N 26 41 14 22 1016.4 1016.4 0.0
23/04:13am 16.1 10.5 8.6 61 3.8 N 28 46 15 25 1016.5 1016.5 0.0
23/04:00am 16.0 11.5 8.5 61 3.8 N 22 37 12 20 1016.7 1016.7 0.0
23/03:30am 16.3 11.8 8.5 60 4.0 N 22 37 12 20 1016.6 1016.6 0.0
23/03:00am 16.3 11.1 8.8 61 3.8 N 26 39 14 21 1017.0 1017.0 0.0
23/02:30am 16.4 11.9 8.6 60 4.0 N 22 35 12 19 1017.1 1017.1 0.0
23/02:00am 16.6 11.8 8.8 60 4.0 N 24 35 13 19 1017.3 1017.3 0.0
23/01:30am 16.6 11.9 9.1 61 3.9 N 24 37 13 20 1017.4 1017.4 0.0
23/01:00am 16.4 12.5 9.3 63 3.7 N 20 30 11 16 1017.2 1017.2 0.0
23/12:30am 16.0 13.1 9.7 66 3.3 N 15 26 8 14 1017.4 1017.4 0.0
23/12:00am 16.5 13.7 9.9 65 3.5 N 15 22 8 12 1017.9 1017.9 0.0
 
Date/Time
EST
Temp
°C
App
Temp
°C
Dew
Point
°C
Rel
Hum
%
Delta-T
°C
Wind Press
QNH
hPa
Press
MSL
hPa
Rain since
9am
mm
Dir  Spd
km/h
Gust
km/h
Spd
kts
Gust
kts
22/11:30pm 16.5 12.8 10.1 66 3.4 NNE 20 32 11 17 1017.5 1017.5 0.0
22/11:00pm 16.2 13.9 10.5 69 3.0 N 13 22 7 12 1018.1 1018.1 0.0
22/10:30pm 15.9 12.5 10.7 71 2.8 NNE 19 30 10 16 1017.5 1017.5 0.0
22/10:00pm 16.2 12.6 10.7 70 2.9 NNE 20 35 11 19 1017.7 1017.7 0.0
22/09:30pm 16.3 10.9 10.8 70 2.9 NNE 30 43 16 23 1017.7 1017.7 0.0
22/09:18pm 16.5 10.6 11.0 70 2.9 NNE 33 52 18 28 1017.4 1017.4 0.0
22/09:00pm 16.5 10.8 11.0 70 2.9 N 32 44 17 24 1017.5 1017.5 0.0
22/08:30pm 16.4 13.0 11.1 71 2.8 NNE 20 30 11 16 1017.6 1017.6 0.0
22/08:00pm 16.5 13.5 10.8 69 3.0 N 17 28 9 15 1017.7 1017.7 0.0
22/07:30pm 16.1 13.4 10.4 69 3.0 NE 15 20 8 11 1017.5 1017.5 0.0
22/07:00pm 16.5 14.2 10.4 67 3.2 N 13 24 7 13 1017.9 1017.9 0.0
22/06:30pm 16.8 13.3 10.2 65 3.5 NNE 19 28 10 15 1017.4 1017.4 0.0
22/06:00pm 17.0 13.1 9.4 61 4.0 NNE 20 32 11 17 1017.5 1017.5 0.0
22/05:30pm 17.4 13.2 9.8 61 4.0 NNE 22 28 12 15 1017.1 1017.1 0.0
22/05:00pm 17.9 14.2 10.3 61 4.0 NNE 20 30 11 16 1017.4 1017.4 0.0
22/04:30pm 18.2 13.9 10.6 61 4.1 NNE 24 32 13 17 1017.2 1017.2 0.0
22/04:00pm 18.8 14.5 10.6 59 4.4 NNE 24 39 13 21 1017.3 1017.3 0.0
22/03:30pm 19.3 15.1 11.1 59 4.5 NNE 24 35 13 19 1017.5 1017.5 0.0
22/03:00pm 19.1 14.5 11.2 60 4.3 NNE 26 41 14 22 1017.6 1017.6 0.0
22/02:30pm 19.3 14.3 11.1 59 4.5 NNE 28 41 15 22 1017.4 1017.4 0.0
22/02:00pm 19.3 14.7 11.1 59 4.5 NNE 26 39 14 21 1017.9 1017.9 0.0
22/01:30pm 19.1 15.3 11.2 60 4.3 NNE 22 32 12 17 1018.2 1018.2 0.0

Latest Capital City Observations: Canberra | Sydney | Melbourne | Brisbane | Adelaide | Perth | Hobart | Darwin

Other Formats:

Comma delimited format used in spreadsheet applications
http://www.bom.gov.au/fwo/IDV60901/IDV60901.94865.axf

JavaScript Object Notation format (JSON) in row-major order
http://www.bom.gov.au/fwo/IDV60901/IDV60901.94865.json